createdAt,value
2019-02-26T00:02:50.675Z,3.80
2019-02-26T00:05:21.406Z,3.89
2019-02-26T00:07:49.215Z,3.84
2019-02-26T00:10:14.828Z,3.89
2019-02-26T00:12:43.519Z,3.90
2019-02-26T00:15:12.146Z,3.90
2019-02-26T00:17:43.162Z,3.81
2019-02-26T00:20:10.962Z,3.77
2019-02-26T00:22:39.046Z,3.79
2019-02-26T00:25:08.479Z,3.79
2019-02-26T00:27:35.387Z,3.78
2019-02-26T00:30:14.318Z,3.80
2019-02-26T00:32:41.850Z,3.75
2019-02-26T00:35:10.482Z,3.77
2019-02-26T00:37:39.490Z,3.67
2019-02-26T00:40:10.121Z,3.65
2019-02-26T00:42:37.122Z,3.62
2019-02-26T00:45:07.894Z,3.62
2019-02-26T00:47:36.286Z,3.69
2019-02-26T00:50:05.129Z,3.62
2019-02-26T00:52:32.654Z,3.69
2019-02-26T00:55:03.053Z,3.59
2019-02-26T00:57:31.714Z,3.72
2019-02-26T01:00:00.736Z,3.64
2019-02-26T01:02:26.968Z,3.61
2019-02-26T01:04:55.602Z,3.65
2019-02-26T01:07:25.968Z,3.70
2019-02-26T01:09:54.600Z,3.71
2019-02-26T01:12:21.769Z,3.77
2019-02-26T01:14:50.657Z,3.78
2019-02-26T01:17:19.245Z,3.85
2019-02-26T01:19:48.230Z,3.93
2019-02-26T01:22:17.131Z,4.04
2019-02-26T01:24:47.617Z,4.18
2019-02-26T01:27:14.391Z,4.22
2019-02-26T01:29:44.549Z,4.28
2019-02-26T01:32:15.166Z,4.35
2019-02-26T01:34:42.576Z,4.48
2019-02-26T01:37:10.325Z,4.48
2019-02-26T01:39:42.178Z,4.78
2019-02-26T01:42:07.041Z,4.76
2019-02-26T01:44:38.081Z,5.07
2019-02-26T01:47:04.994Z,5.28
2019-02-26T01:49:33.621Z,5.29
2019-02-26T01:52:02.235Z,5.28
2019-02-26T01:54:32.977Z,5.21
2019-02-26T01:56:59.484Z,5.10
2019-02-26T01:59:28.103Z,5.00
2019-02-26T02:01:56.732Z,5.00
2019-02-26T02:04:25.349Z,5.03
2019-02-26T02:06:54.941Z,5.17
2019-02-26T02:09:24.970Z,5.17
2019-02-26T02:11:51.598Z,5.40
2019-02-26T02:14:20.191Z,5.67
2019-02-26T02:16:49.085Z,5.71
2019-02-26T02:19:20.052Z,5.87
2019-02-26T02:21:47.645Z,6.03
2019-02-26T02:24:17.474Z,6.11
2019-02-26T02:26:47.515Z,6.12
2019-02-26T02:29:14.997Z,6.08
2019-02-26T02:31:41.786Z,6.18
2019-02-26T02:34:10.413Z,6.20
2019-02-26T02:36:39.040Z,6.17
2019-02-26T02:39:10.713Z,6.15
2019-02-26T02:41:39.132Z,5.95
2019-02-26T02:44:04.964Z,5.95
2019-02-26T02:46:34.133Z,5.79
2019-02-26T02:49:04.727Z,5.79
2019-02-26T02:51:33.465Z,5.73
2019-02-26T02:53:59.851Z,5.49
2019-02-26T02:56:30.758Z,5.21
2019-02-26T02:58:57.114Z,5.17
2019-02-26T03:01:28.570Z,5.12
2019-02-26T03:03:57.928Z,4.99
2019-02-26T03:06:24.259Z,4.87
2019-02-26T03:08:53.530Z,4.63
2019-02-26T03:11:21.687Z,4.63
2019-02-26T03:13:51.252Z,4.53
2019-02-26T03:16:21.343Z,4.47
2019-02-26T03:18:47.606Z,4.31
2019-02-26T03:21:17.676Z,4.24
2019-02-26T03:23:45.605Z,4.28
2019-02-26T03:26:15.135Z,4.22
2019-02-26T03:28:44.451Z,4.13
2019-02-26T03:31:10.796Z,4.06
2019-02-26T03:33:39.400Z,3.98
2019-02-26T03:36:10.927Z,3.94
2019-02-26T03:38:36.650Z,3.90
2019-02-26T03:41:05.360Z,3.84
2019-02-26T03:43:34.742Z,3.80
2019-02-26T03:46:02.955Z,3.77
2019-02-26T03:48:31.605Z,3.74
2019-02-26T03:51:01.281Z,3.72
2019-02-26T03:53:31.403Z,3.65
2019-02-26T03:56:01.922Z,3.67
2019-02-26T03:58:26.494Z,3.69
2019-02-26T04:00:55.140Z,3.65
2019-02-26T04:03:23.782Z,3.57
2019-02-26T04:05:52.419Z,3.58
2019-02-26T04:08:22.505Z,3.61
2019-02-26T04:10:52.738Z,3.54
2019-02-26T04:15:59.592Z,3.45
2019-02-26T04:18:26.014Z,3.43
2019-02-26T04:20:56.828Z,3.37
2019-02-26T04:23:23.557Z,3.31
2019-02-26T04:26:10.975Z,3.36
2019-02-26T04:31:29.722Z,3.25
2019-02-26T04:36:59.110Z,3.17
2019-02-26T04:42:41.008Z,3.13
2019-02-26T04:50:35.508Z,3.05
2019-02-26T04:53:05.106Z,3.00
2019-02-26T04:55:34.994Z,3.01
2019-02-26T04:57:59.588Z,2.97
2019-02-26T05:00:30.388Z,2.87
2019-02-26T05:02:56.908Z,2.82
2019-02-26T05:05:27.792Z,2.88
2019-02-26T05:07:54.750Z,2.88
2019-02-26T05:10:26.442Z,2.87
2019-02-26T05:12:56.197Z,2.86
2019-02-26T05:15:23.085Z,2.77
2019-02-26T05:17:49.276Z,2.74
2019-02-26T05:20:18.962Z,2.69
2019-02-26T05:22:46.544Z,2.77
2019-02-26T05:25:19.203Z,2.71
2019-02-26T05:27:46.051Z,2.82
2019-02-26T05:30:16.490Z,2.77
2019-02-26T05:32:42.106Z,2.77
2019-02-26T05:35:11.582Z,2.73
2019-02-26T05:37:40.989Z,2.75
2019-02-26T05:40:10.398Z,2.71
2019-02-26T05:42:36.950Z,2.73
2019-02-26T05:45:06.875Z,2.73
2019-02-26T05:47:34.235Z,2.82
2019-02-26T05:50:06.245Z,3.04
2019-02-26T05:52:33.224Z,3.38
2019-02-26T05:55:00.513Z,3.86
2019-02-26T05:57:32.509Z,3.98
2019-02-26T05:59:57.753Z,3.96
2019-02-26T06:02:26.338Z,3.98
2019-02-26T06:04:54.960Z,3.89
2019-02-26T06:07:26.967Z,3.80
2019-02-26T06:09:54.240Z,3.62
2019-02-26T06:12:21.193Z,3.53
2019-02-26T06:14:51.486Z,3.44
2019-02-26T06:17:19.821Z,3.33
2019-02-26T06:19:47.407Z,3.32
2019-02-26T06:22:18.132Z,3.41
2019-02-26T06:24:44.665Z,3.27
2019-02-26T06:27:15.872Z,3.28
2019-02-26T06:29:41.920Z,3.17
2019-02-26T06:32:11.989Z,3.14
2019-02-26T06:34:39.505Z,3.15
2019-02-26T06:37:23.773Z,3.08
2019-02-26T06:39:54.830Z,3.06
2019-02-26T06:42:21.065Z,3.07
2019-02-26T06:44:51.437Z,3.10
2019-02-26T06:47:18.641Z,3.14
2019-02-26T06:49:48.538Z,3.15
2019-02-26T06:52:17.979Z,3.32
2019-02-26T06:57:23.730Z,3.53
2019-02-26T06:59:55.126Z,3.59
2019-02-26T07:02:21.022Z,3.73
2019-02-26T07:04:50.032Z,3.86
2019-02-26T07:07:18.674Z,3.97
2019-02-26T07:09:47.294Z,4.20
2019-02-26T07:12:17.033Z,4.40
2019-02-26T07:14:46.443Z,4.45
2019-02-26T07:17:13.209Z,4.42
2019-02-26T07:19:41.812Z,4.39
2019-02-26T07:22:11.666Z,4.38
2019-02-26T07:24:41.189Z,4.42
2019-02-26T07:27:09.156Z,4.41
2019-02-26T07:29:40.025Z,4.36
2019-02-26T07:32:05.647Z,4.31
2019-02-26T07:34:34.206Z,4.31
2019-02-26T07:37:04.258Z,4.44
2019-02-26T07:39:31.811Z,4.63
2019-02-26T07:42:00.440Z,4.82
2019-02-26T07:44:29.055Z,5.03
2019-02-26T07:46:58.826Z,5.13
2019-02-26T07:49:26.335Z,5.37
2019-02-26T07:51:56.076Z,5.46
2019-02-26T07:54:23.592Z,5.67
2019-02-26T07:56:54.617Z,5.91
2019-02-26T07:59:27.462Z,5.99
2019-02-26T08:01:49.776Z,6.05
2019-02-26T08:04:18.525Z,6.20
2019-02-26T08:06:47.067Z,6.46
2019-02-26T08:09:17.002Z,6.64
2019-02-26T08:11:48.488Z,6.75
2019-02-26T08:14:14.337Z,6.94
2019-02-26T08:16:42.274Z,7.19
2019-02-26T08:19:10.888Z,7.44
2019-02-26T08:21:39.543Z,7.76
2019-02-26T08:24:10.619Z,7.95
2019-02-26T08:26:38.615Z,7.95
2019-02-26T08:29:07.580Z,8.18
2019-02-26T08:31:34.475Z,8.18
2019-02-26T08:34:03.101Z,8.31
2019-02-26T08:39:14.962Z,8.52
2019-02-26T08:41:39.555Z,8.52
2019-02-26T08:44:08.222Z,8.69
2019-02-26T08:46:37.835Z,8.69
2019-02-26T08:49:08.261Z,8.92
2019-02-26T08:51:34.115Z,9.00
2019-02-26T08:54:03.083Z,9.15
2019-02-26T08:59:10.307Z,9.42
2019-02-26T09:01:38.964Z,9.48
2019-02-26T09:04:07.577Z,9.55
2019-02-26T09:09:15.355Z,9.89
2019-02-26T09:11:44.366Z,9.95
2019-02-26T09:14:14.144Z,10.04
2019-02-26T09:16:42.329Z,10.14
2019-02-26T09:19:11.320Z,10.23
2019-02-26T09:21:42.542Z,10.23
2019-02-26T09:24:08.593Z,10.41
2019-02-26T09:26:37.234Z,10.53
2019-02-26T09:29:05.861Z,10.71
2019-02-26T09:31:34.480Z,10.82
2019-02-26T09:34:03.125Z,10.93
2019-02-26T09:39:12.675Z,11.07
2019-02-26T09:41:40.321Z,11.08
2019-02-26T09:44:09.654Z,11.16
2019-02-26T09:46:39.334Z,11.27
2019-02-26T09:49:09.888Z,11.35
2019-02-26T09:51:35.239Z,11.43
2019-02-26T09:54:03.118Z,11.53
2019-02-26T09:59:13.021Z,11.67
2019-02-26T10:01:40.754Z,11.68
2019-02-26T10:04:07.852Z,11.68
2019-02-26T10:06:37.894Z,11.81
2019-02-26T10:09:05.223Z,12.02
2019-02-26T10:11:34.095Z,12.15
2019-02-26T10:14:04.859Z,12.24
2019-02-26T10:19:12.495Z,12.16
2019-02-26T10:21:39.996Z,12.20
2019-02-26T10:24:07.540Z,12.30
2019-02-26T10:26:38.603Z,12.31
2019-02-26T10:29:05.033Z,12.34
2019-02-26T10:31:33.773Z,12.45
2019-02-26T10:34:03.144Z,12.52
2019-02-26T10:36:34.724Z,12.50
2019-02-26T10:39:00.736Z,12.53
2019-02-26T10:41:28.336Z,12.54
2019-02-26T10:43:56.994Z,12.61
2019-02-26T10:46:25.627Z,12.81
2019-02-26T10:48:54.272Z,12.88
2019-02-26T10:51:26.084Z,12.82
2019-02-26T10:53:51.829Z,12.95
2019-02-26T10:56:20.715Z,12.91
2019-02-26T10:58:49.378Z,13.03
2019-02-26T11:01:22.775Z,13.13
2019-02-26T11:03:47.285Z,13.16
2019-02-26T11:06:17.387Z,13.19
2019-02-26T11:08:43.948Z,13.28
2019-02-26T11:11:13.964Z,13.32
2019-02-26T11:13:43.511Z,13.34
2019-02-26T11:16:09.855Z,13.37
2019-02-26T11:18:39.810Z,13.56
2019-02-26T11:21:07.132Z,13.61
2019-02-26T11:23:36.315Z,13.71
2019-02-26T11:26:06.505Z,13.73
2019-02-26T11:28:37.903Z,13.63
2019-02-26T11:31:01.696Z,13.78
2019-02-26T11:33:30.593Z,13.88
2019-02-26T11:35:59.628Z,14.01
2019-02-26T11:38:27.943Z,14.09
2019-02-26T11:40:56.562Z,14.13
2019-02-26T11:43:26.978Z,14.06
2019-02-26T11:45:53.855Z,13.95
2019-02-26T11:48:23.373Z,14.03
2019-02-26T11:50:51.155Z,13.96
2019-02-26T11:53:19.793Z,14.12
2019-02-26T11:55:51.387Z,14.11
2019-02-26T11:58:19.880Z,14.24
2019-02-26T12:00:49.622Z,14.19
2019-02-26T12:03:14.583Z,14.16
2019-02-26T12:05:43.207Z,14.10
2019-02-26T12:08:14.485Z,14.24
2019-02-26T12:10:41.143Z,14.26
2019-02-26T12:13:09.778Z,14.35
2019-02-26T12:15:41.477Z,14.49
2019-02-26T12:18:07.065Z,14.51
2019-02-26T12:20:37.971Z,14.48
2019-02-26T12:23:04.622Z,14.61
2019-02-26T12:25:33.549Z,14.69
2019-02-26T12:28:02.948Z,14.69
2019-02-26T12:30:32.382Z,14.64
2019-02-26T12:32:59.733Z,14.72
2019-02-26T12:35:29.697Z,14.72
2019-02-26T12:37:59.368Z,14.72
2019-02-26T12:40:25.660Z,14.67
2019-02-26T12:42:54.326Z,14.51
2019-02-26T12:45:25.615Z,14.54
2019-02-26T12:47:54.935Z,14.71
2019-02-26T12:52:59.092Z,14.77
2019-02-26T12:55:31.614Z,14.81
2019-02-26T12:57:59.401Z,14.94
2019-02-26T13:00:25.267Z,15.04
2019-02-26T13:02:53.904Z,14.80
2019-02-26T13:05:23.188Z,14.72
2019-02-26T13:07:51.214Z,14.45
2019-02-26T13:10:26.245Z,14.47
2019-02-26T13:12:59.289Z,14.36
2019-02-26T13:15:23.501Z,14.43
2019-02-26T13:20:26.715Z,14.66
2019-02-26T13:22:58.716Z,14.84
2019-02-26T13:25:26.766Z,14.81
2019-02-26T13:27:52.976Z,14.67
2019-02-26T13:30:24.206Z,14.61
2019-02-26T13:33:00.410Z,14.66
2019-02-26T13:35:22.595Z,14.84
2019-02-26T13:37:50.494Z,14.92
2019-02-26T13:45:26.665Z,15.05
2019-02-26T13:48:00.975Z,14.98
2019-02-26T13:53:08.568Z,15.06
2019-02-26T13:55:37.215Z,14.97
2019-02-26T13:58:11.712Z,14.90
2019-02-26T14:00:34.797Z,14.96
2019-02-26T14:03:04.204Z,15.03
2019-02-26T14:05:37.941Z,14.91
2019-02-26T14:08:01.002Z,14.89
2019-02-26T14:10:29.995Z,14.79
2019-02-26T14:12:58.721Z,14.76
2019-02-26T14:18:05.664Z,14.87
2019-02-26T14:20:34.312Z,14.86
2019-02-26T14:23:02.953Z,14.81
2019-02-26T14:25:31.600Z,14.91
2019-02-26T14:28:00.509Z,14.89
2019-02-26T14:30:29.159Z,14.93
2019-02-26T14:32:58.085Z,14.92
2019-02-26T14:35:27.079Z,15.14
2019-02-26T14:37:55.716Z,15.13
2019-02-26T14:40:24.372Z,15.00
2019-02-26T14:42:53.007Z,14.76
2019-02-26T14:48:00.219Z,14.54
2019-02-26T14:50:28.874Z,14.75
2019-02-26T14:52:57.493Z,14.82
2019-02-26T14:55:26.151Z,14.99
2019-02-26T14:57:54.783Z,14.91
2019-02-26T15:00:23.747Z,14.77
2019-02-26T15:02:52.731Z,14.75
2019-02-26T15:05:21.385Z,14.71
2019-02-26T15:07:50.013Z,14.77
2019-02-26T15:10:20.482Z,14.79
2019-02-26T15:12:47.578Z,14.61
2019-02-26T15:15:16.237Z,14.53
2019-02-26T15:17:44.871Z,14.61
2019-02-26T15:20:16.702Z,14.63
2019-02-26T15:22:45.607Z,14.65
2019-02-26T15:25:17.450Z,14.61
2019-02-26T15:27:46.074Z,14.57
2019-02-26T15:32:56.385Z,14.48
2019-02-26T15:35:25.027Z,14.36
2019-02-26T15:37:53.648Z,14.37
2019-02-26T15:40:22.307Z,14.30
2019-02-26T15:42:53.068Z,14.24
2019-02-26T15:45:24.041Z,14.18
2019-02-26T15:47:51.302Z,14.09
2019-02-26T15:50:19.949Z,14.05
2019-02-26T15:52:52.750Z,13.93
2019-02-26T15:58:03.002Z,13.72
2019-02-26T16:00:27.067Z,13.43
2019-02-26T16:02:59.040Z,13.23
2019-02-26T16:05:33.868Z,13.13
2019-02-26T16:08:02.860Z,12.91
2019-02-26T16:10:31.497Z,12.93
2019-02-26T16:13:00.196Z,12.81
2019-02-26T16:15:29.115Z,12.56
2019-02-26T16:17:59.032Z,12.38
2019-02-26T16:20:27.103Z,12.10
2019-02-26T16:22:55.748Z,11.86
2019-02-26T16:25:24.707Z,11.66
2019-02-26T16:27:53.899Z,11.52
2019-02-26T16:30:24.918Z,11.30
2019-02-26T16:32:53.529Z,11.22
2019-02-26T16:35:24.762Z,11.09
2019-02-26T16:37:50.794Z,10.87
2019-02-26T16:40:19.431Z,10.68
2019-02-26T16:42:48.060Z,10.60
2019-02-26T16:45:25.332Z,10.42
2019-02-26T16:47:53.967Z,10.11
2019-02-26T16:53:01.431Z,10.11
2019-02-26T16:55:30.075Z,9.95
2019-02-26T16:58:02.228Z,9.78
2019-02-26T17:00:30.298Z,9.71
2019-02-26T17:03:00.769Z,9.51
2019-02-26T17:05:27.909Z,9.39
2019-02-26T17:07:56.882Z,9.32
2019-02-26T17:10:29.391Z,9.27
2019-02-26T17:12:54.150Z,9.15
2019-02-26T17:15:25.556Z,9.19
2019-02-26T17:17:51.423Z,9.07
2019-02-26T17:20:22.442Z,8.99
2019-02-26T17:22:48.691Z,8.91
2019-02-26T17:25:17.318Z,8.84
2019-02-26T17:27:45.947Z,8.79
2019-02-26T17:30:17.206Z,8.69
2019-02-26T17:32:46.125Z,8.64
2019-02-26T17:35:15.077Z,8.54
2019-02-26T17:37:43.724Z,8.45
2019-02-26T17:40:12.342Z,8.39
2019-02-26T17:42:40.984Z,8.37
2019-02-26T17:45:09.603Z,8.22
2019-02-26T17:47:38.596Z,8.25
2019-02-26T17:50:09.645Z,8.19
2019-02-26T17:52:36.236Z,8.16
2019-02-26T17:55:05.164Z,8.13
2019-02-26T17:57:34.666Z,8.06
2019-02-26T18:00:02.702Z,7.99
2019-02-26T18:02:31.332Z,7.94
2019-02-26T18:05:00.762Z,7.95
2019-02-26T18:07:28.893Z,7.86
2019-02-26T18:09:57.512Z,7.86
2019-02-26T18:12:26.156Z,7.82
2019-02-26T18:14:56.120Z,7.69
2019-02-26T18:17:24.032Z,7.53
2019-02-26T18:19:52.923Z,7.63
2019-02-26T18:22:22.284Z,7.59
2019-02-26T18:24:50.203Z,7.49
2019-02-26T19:02:18.014Z,6.92
2019-02-26T19:24:35.874Z,6.24
2019-02-26T19:27:03.492Z,6.35
2019-02-26T19:41:12.658Z,6.30
2019-02-26T20:06:26.169Z,5.99
2019-02-26T20:08:53.703Z,5.92
2019-02-26T20:11:23.663Z,5.81
2019-02-26T20:16:35.502Z,5.73
2019-02-26T20:19:05.679Z,5.74
2019-02-26T20:21:35.643Z,5.75
2019-02-26T20:24:05.722Z,5.70
2019-02-26T20:26:35.673Z,5.61
2019-02-26T20:29:07.811Z,5.59
2019-02-26T20:31:36.000Z,5.51
2019-02-26T20:34:06.682Z,5.35
2019-02-26T20:36:36.115Z,5.44
2019-02-26T20:39:07.915Z,5.50
2019-02-26T20:41:36.203Z,5.41
2019-02-26T20:44:07.837Z,5.36
2019-02-26T20:46:36.304Z,5.32
2019-02-26T20:49:06.402Z,5.36
2019-02-26T20:51:36.629Z,5.40
2019-02-26T20:54:06.614Z,5.33
2019-02-26T20:56:36.877Z,5.24
2019-02-26T20:59:06.865Z,5.13
2019-02-26T21:01:36.851Z,5.23
2019-02-26T21:04:06.828Z,5.20
2019-02-26T21:06:36.795Z,5.22
2019-02-26T21:11:46.026Z,5.12
2019-02-26T21:14:16.306Z,5.09
2019-02-26T21:16:46.620Z,5.00
2019-02-26T21:19:16.592Z,5.01
2019-02-26T21:21:48.884Z,4.89
2019-02-26T21:24:16.877Z,4.88
2019-02-26T21:26:46.841Z,4.96
2019-02-26T21:29:17.113Z,4.94
2019-02-26T21:31:47.079Z,4.96
2019-02-26T21:34:17.348Z,4.92
2019-02-26T21:36:47.848Z,4.80
2019-02-26T21:39:17.997Z,4.80
2019-02-26T21:41:48.205Z,4.70
2019-02-26T21:44:18.178Z,4.75
2019-02-26T21:46:48.442Z,4.67
2019-02-26T21:49:18.405Z,4.67
2019-02-26T21:51:48.364Z,4.67
2019-02-26T21:54:18.335Z,4.66
2019-02-26T21:56:48.886Z,4.70
2019-02-26T21:59:18.262Z,4.67
2019-02-26T22:01:48.228Z,4.57
2019-02-26T22:04:18.190Z,4.52
2019-02-26T22:06:48.143Z,4.43
2019-02-26T22:09:18.109Z,4.40
2019-02-26T22:11:50.422Z,4.42
2019-02-26T22:16:57.141Z,4.38
2019-02-26T22:19:27.345Z,4.50
2019-02-26T22:21:57.290Z,4.40
2019-02-26T22:24:27.314Z,4.35
2019-02-26T22:27:00.141Z,4.38
2019-02-26T22:29:27.610Z,4.35
2019-02-26T22:31:59.762Z,4.33
2019-02-26T22:34:28.264Z,4.24
2019-02-26T22:36:58.227Z,4.24
2019-02-26T22:39:28.496Z,4.14
2019-02-26T22:41:58.464Z,4.23
2019-02-26T22:44:28.739Z,4.24
2019-02-26T22:46:59.223Z,4.22
2019-02-26T22:49:28.925Z,4.17
2019-02-26T22:51:59.116Z,4.11
2019-02-26T22:54:28.855Z,4.07
2019-02-26T22:56:59.076Z,3.99
2019-02-26T22:59:29.354Z,3.99
2019-02-26T23:01:59.292Z,4.05
2019-02-26T23:04:29.449Z,4.03
2019-02-26T23:06:59.578Z,4.00
2019-02-26T23:09:29.902Z,3.97
2019-02-26T23:12:00.223Z,3.97
2019-02-26T23:14:30.196Z,3.91
2019-02-26T23:17:00.158Z,3.91
2019-02-26T23:19:30.177Z,3.73
2019-02-26T23:22:00.482Z,3.81
2019-02-26T23:24:30.462Z,3.63
2019-02-26T23:27:00.429Z,3.75
2019-02-26T23:29:30.416Z,3.72
2019-02-26T23:32:00.379Z,3.68
2019-02-26T23:34:30.350Z,3.57
2019-02-26T23:37:01.002Z,3.57
2019-02-26T23:39:30.295Z,3.57
2019-02-26T23:42:00.230Z,3.62
2019-02-26T23:44:30.523Z,3.62
2019-02-26T23:47:02.101Z,3.69
2019-02-26T23:49:30.758Z,3.70
2019-02-26T23:52:00.706Z,3.69
2019-02-26T23:54:30.672Z,3.66
2019-02-26T23:57:00.630Z,3.59
2019-02-26T23:59:30.592Z,3.58
